createdAt,value
2022-08-07T04:00:30.569Z,1010.42
2022-08-07T04:01:29.897Z,1010.44
2022-08-07T04:02:29.848Z,1010.41
2022-08-07T04:03:29.845Z,1010.42
2022-08-07T04:04:32.648Z,1010.33
2022-08-07T04:05:41.160Z,1010.38
2022-08-07T04:06:37.442Z,1010.38
2022-08-07T04:07:36.153Z,1010.48
2022-08-07T04:08:30.826Z,1010.41
2022-08-07T04:09:45.471Z,1010.47
2022-08-07T04:10:30.754Z,1010.49
2022-08-07T04:12:23.367Z,1010.48
2022-08-07T04:12:30.747Z,1010.42
2022-08-07T04:13:29.722Z,1010.45
2022-08-07T04:14:38.018Z,1010.47
2022-08-07T04:15:30.696Z,1010.47
2022-08-07T04:16:31.007Z,1010.47
2022-08-07T04:17:31.061Z,1010.48
2022-08-07T04:18:59.410Z,1010.50
2022-08-07T04:19:51.022Z,1010.47
2022-08-07T04:20:30.818Z,1010.44
2022-08-07T04:21:31.811Z,1010.46
2022-08-07T04:22:34.652Z,1010.49
2022-08-07T04:23:43.653Z,1010.47
2022-08-07T04:24:34.016Z,1010.48
2022-08-07T04:25:29.653Z,1010.48
2022-08-07T04:26:29.575Z,1010.49
2022-08-07T04:27:35.460Z,1010.50
2022-08-07T04:28:30.552Z,1010.53
2022-08-07T04:29:30.433Z,1010.50
2022-08-07T04:30:39.214Z,1010.48
2022-08-07T04:31:39.236Z,1010.52
2022-08-07T04:32:34.239Z,1010.53
2022-08-07T04:33:35.277Z,1010.55
2022-08-07T04:34:33.123Z,1010.55
2022-08-07T04:35:35.167Z,1010.59
2022-08-07T04:36:30.470Z,1010.61
2022-08-07T04:37:29.460Z,1010.59
2022-08-07T04:38:30.452Z,1010.66
2022-08-07T04:39:35.964Z,1010.63
2022-08-07T04:40:31.419Z,1010.60
2022-08-07T04:41:29.480Z,1010.59
2022-08-07T04:42:30.413Z,1010.63
2022-08-07T04:44:12.390Z,1010.60
2022-08-07T04:44:35.393Z,1010.57
2022-08-07T04:45:57.279Z,1010.60
2022-08-07T04:46:34.747Z,1010.58
2022-08-07T04:48:01.632Z,1010.62
2022-08-07T04:48:30.633Z,1010.63
2022-08-07T04:49:29.566Z,1010.67
2022-08-07T04:50:30.305Z,1010.71
2022-08-07T04:51:29.293Z,1010.70
2022-08-07T04:52:29.521Z,1010.72
2022-08-07T04:54:01.311Z,1010.70
2022-08-07T04:54:30.530Z,1010.75
2022-08-07T04:58:13.692Z,1010.76
2022-08-07T04:58:15.262Z,1010.75
2022-08-07T04:58:16.148Z,1010.81
2022-08-07T04:58:49.821Z,1010.79
2022-08-07T05:00:14.620Z,1010.73
2022-08-07T05:00:32.253Z,1010.69
2022-08-07T05:01:30.254Z,1010.73
2022-08-07T05:02:29.178Z,1010.82
2022-08-07T05:04:07.352Z,1010.81
2022-08-07T05:04:30.146Z,1010.80
2022-08-07T05:05:53.497Z,1010.88
2022-08-07T05:06:43.728Z,1010.86
2022-08-07T05:07:36.617Z,1010.85
2022-08-07T05:09:00.072Z,1010.85
2022-08-07T05:09:46.084Z,1010.82
2022-08-07T05:10:30.080Z,1010.82
2022-08-07T05:11:58.094Z,1010.75
2022-08-07T05:12:30.377Z,1010.79
2022-08-07T05:14:51.993Z,1010.81
2022-08-07T05:14:55.283Z,1010.74
2022-08-07T05:15:30.019Z,1010.71
2022-08-07T05:16:29.005Z,1010.74
2022-08-07T05:17:51.774Z,1010.69
2022-08-07T05:18:29.982Z,1010.76
2022-08-07T05:19:32.612Z,1010.78
2022-08-07T05:20:28.960Z,1010.79
2022-08-07T05:22:00.022Z,1010.78
2022-08-07T05:22:29.971Z,1010.79
2022-08-07T05:23:30.184Z,1010.80
2022-08-07T05:24:30.625Z,1010.71
2022-08-07T05:25:36.612Z,1010.81
2022-08-07T05:26:29.896Z,1010.80
2022-08-07T05:28:02.726Z,1010.93
2022-08-07T05:28:34.920Z,1010.92
2022-08-07T05:29:39.118Z,1010.95
2022-08-07T05:30:32.796Z,1010.93
2022-08-07T05:31:34.549Z,1011.00
2022-08-07T05:32:29.830Z,1011.03
2022-08-07T05:33:28.827Z,1010.96
2022-08-07T05:34:28.805Z,1011.01
2022-08-07T05:35:33.518Z,1011.02
2022-08-07T05:36:32.137Z,1011.00
2022-08-07T05:37:30.028Z,1011.03
2022-08-07T05:39:00.442Z,1010.97
2022-08-07T05:40:16.723Z,1011.01
2022-08-07T05:40:29.846Z,1011.05
2022-08-07T05:42:02.786Z,1011.07
2022-08-07T05:42:33.736Z,1010.99
2022-08-07T05:43:49.569Z,1011.04
2022-08-07T05:44:29.865Z,1011.03
2022-08-07T05:45:47.588Z,1011.03
2022-08-07T05:46:29.685Z,1011.00
2022-08-07T05:47:28.656Z,1011.11
2022-08-07T05:48:29.727Z,1011.11
2022-08-07T05:49:37.151Z,1011.09
2022-08-07T05:50:34.655Z,1011.17
2022-08-07T05:51:31.443Z,1011.13
2022-08-07T05:52:32.482Z,1011.14
2022-08-07T05:54:12.342Z,1011.19
2022-08-07T05:54:44.198Z,1011.06
2022-08-07T05:56:02.852Z,1011.19
2022-08-07T05:56:30.250Z,1011.21
2022-08-07T05:57:30.165Z,1011.15
2022-08-07T05:58:36.016Z,1011.12
2022-08-07T05:59:29.569Z,1011.14
2022-08-07T06:00:29.535Z,1011.19
2022-08-07T06:01:34.883Z,1011.16
2022-08-07T06:02:29.628Z,1011.14
2022-08-07T06:03:47.021Z,1011.10
2022-08-07T06:04:30.225Z,1011.09
2022-08-07T06:05:28.707Z,1011.15
2022-08-07T06:06:29.931Z,1011.17
2022-08-07T06:08:29.290Z,1011.10
2022-08-07T06:08:31.526Z,1011.16
2022-08-07T06:09:45.288Z,1011.13
2022-08-07T06:10:29.392Z,1011.17
2022-08-07T06:11:28.415Z,1011.19
2022-08-07T06:12:33.407Z,1011.17
2022-08-07T06:14:10.321Z,1011.23
2022-08-07T06:14:30.280Z,1011.15
2022-08-07T06:15:41.896Z,1011.17
2022-08-07T06:16:29.407Z,1011.19
2022-08-07T06:17:30.582Z,1011.15
2022-08-07T06:18:29.304Z,1011.19
2022-08-07T06:19:51.952Z,1011.07
2022-08-07T06:20:49.427Z,1011.11
2022-08-07T06:22:15.281Z,1011.12
2022-08-07T06:22:29.254Z,1011.11
2022-08-07T06:24:38.744Z,1011.14
2022-08-07T06:24:45.614Z,1011.14
2022-08-07T06:25:34.849Z,1011.12
2022-08-07T06:26:29.210Z,1011.17
2022-08-07T06:28:00.623Z,1011.17
2022-08-07T06:28:29.191Z,1011.18
2022-08-07T06:29:28.188Z,1011.14
2022-08-07T06:30:35.431Z,1011.16
2022-08-07T06:31:47.100Z,1011.19
2022-08-07T06:32:29.417Z,1011.14
2022-08-07T06:33:29.741Z,1011.13
2022-08-07T06:34:33.374Z,1011.15
2022-08-07T06:35:30.521Z,1011.22
2022-08-07T06:36:35.366Z,1011.17
2022-08-07T06:37:43.485Z,1011.18
2022-08-07T06:38:29.079Z,1011.16
2022-08-07T06:40:18.023Z,1011.21
2022-08-07T06:40:34.303Z,1011.17
2022-08-07T06:41:47.557Z,1011.16
2022-08-07T06:42:32.931Z,1011.13
2022-08-07T06:43:32.387Z,1011.15
2022-08-07T06:44:33.860Z,1011.19
2022-08-07T06:45:34.197Z,1011.15
2022-08-07T06:46:35.112Z,1011.13
2022-08-07T06:47:29.140Z,1011.17
2022-08-07T06:48:28.976Z,1011.09
2022-08-07T06:49:28.051Z,1011.17
2022-08-07T06:50:27.945Z,1011.16
2022-08-07T06:51:33.140Z,1011.13
2022-08-07T06:52:31.957Z,1011.11
2022-08-07T06:55:29.297Z,1011.10
2022-08-07T06:55:32.814Z,1011.14
2022-08-07T06:55:53.489Z,1011.13
2022-08-07T06:56:33.897Z,1011.05
2022-08-07T06:57:39.237Z,1011.08
2022-08-07T06:58:28.971Z,1011.06
2022-08-07T07:00:12.087Z,1011.07
2022-08-07T07:00:28.824Z,1011.12
2022-08-07T07:01:33.227Z,1011.11
2022-08-07T07:02:53.657Z,1011.10
2022-08-07T07:03:49.071Z,1011.06
2022-08-07T07:04:33.326Z,1011.03
2022-08-07T07:06:03.685Z,1010.98
2022-08-07T07:06:28.791Z,1011.09
2022-08-07T07:07:59.623Z,1011.10
2022-08-07T07:08:28.960Z,1011.14
2022-08-07T07:09:31.291Z,1011.17
2022-08-07T07:10:27.724Z,1011.13
2022-08-07T07:12:07.575Z,1011.12
2022-08-07T07:12:31.501Z,1011.09
2022-08-07T07:13:55.606Z,1011.14
2022-08-07T07:14:28.666Z,1011.14
2022-08-07T07:15:32.470Z,1011.12
2022-08-07T07:16:30.538Z,1011.10
2022-08-07T07:17:38.625Z,1011.11
2022-08-07T07:18:47.873Z,1011.13
2022-08-07T07:19:56.441Z,1011.12
2022-08-07T07:20:28.609Z,1011.19
2022-08-07T07:21:40.554Z,1011.15
2022-08-07T07:22:36.879Z,1011.14
2022-08-07T07:24:11.189Z,1011.16
2022-08-07T07:24:28.553Z,1011.14
2022-08-07T07:26:34.280Z,1011.10
2022-08-07T07:26:34.280Z,1011.10
2022-08-07T07:27:35.647Z,1011.06
2022-08-07T07:28:29.621Z,1011.12
2022-08-07T07:29:39.660Z,1011.05
2022-08-07T07:30:37.958Z,1011.04
2022-08-07T07:31:30.506Z,1011.01
2022-08-07T07:32:28.468Z,1011.14
2022-08-07T07:33:27.454Z,1011.11
2022-08-07T07:34:31.018Z,1011.11
2022-08-07T07:35:27.439Z,1011.14
2022-08-07T07:36:32.430Z,1011.15
2022-08-07T07:37:47.323Z,1011.15
2022-08-07T07:38:28.477Z,1011.13
2022-08-07T07:39:45.396Z,1011.01
2022-08-07T07:40:33.397Z,1011.02
2022-08-07T07:41:50.383Z,1011.04
2022-08-07T07:42:33.165Z,1010.97
2022-08-07T07:43:48.074Z,1011.03
2022-08-07T07:44:28.339Z,1010.98
2022-08-07T07:46:36.868Z,1010.96
2022-08-07T07:46:40.152Z,1011.03
2022-08-07T07:47:28.299Z,1011.01
2022-08-07T07:48:35.872Z,1011.03
2022-08-07T07:50:31.400Z,1011.00
2022-08-07T07:50:35.521Z,1011.05
2022-08-07T07:51:33.276Z,1011.05
2022-08-07T07:52:28.566Z,1011.04
2022-08-07T07:53:27.239Z,1011.08
2022-08-07T07:54:27.226Z,1011.01
2022-08-07T07:55:27.207Z,1011.03
2022-08-07T07:56:30.617Z,1010.98
2022-08-07T07:57:51.882Z,1010.99
2022-08-07T07:58:28.170Z,1010.95
2022-08-07T07:59:51.447Z,1010.96
2022-08-07T08:00:31.279Z,1010.95
2022-08-07T08:02:01.571Z,1010.93
2022-08-07T08:02:34.024Z,1011.00
2022-08-07T08:04:09.366Z,1010.98
2022-08-07T08:04:28.150Z,1011.02
2022-08-07T08:05:30.226Z,1010.93
2022-08-07T08:06:28.080Z,1010.96
2022-08-07T08:07:35.773Z,1010.98
2022-08-07T08:08:35.777Z,1010.90
2022-08-07T08:09:29.625Z,1010.87
2022-08-07T08:10:38.207Z,1010.92
2022-08-07T08:11:59.921Z,1010.88
2022-08-07T08:12:51.962Z,1010.90
2022-08-07T08:13:36.657Z,1010.96
2022-08-07T08:14:27.989Z,1010.94
2022-08-07T08:15:26.995Z,1010.93
2022-08-07T08:16:29.914Z,1010.96
2022-08-07T08:17:57.423Z,1010.90
2022-08-07T08:18:27.945Z,1010.80
2022-08-07T08:20:17.446Z,1010.88
2022-08-07T08:20:31.967Z,1010.96
2022-08-07T08:22:00.702Z,1010.94
2022-08-07T08:22:28.376Z,1010.93
2022-08-07T08:23:28.156Z,1010.92
2022-08-07T08:24:36.125Z,1010.85
2022-08-07T08:25:42.924Z,1010.85
2022-08-07T08:26:27.852Z,1010.85
2022-08-07T08:27:28.703Z,1010.87
2022-08-07T08:28:38.774Z,1010.90
2022-08-07T08:29:27.822Z,1010.85
2022-08-07T08:30:26.884Z,1010.84
2022-08-07T08:31:58.685Z,1010.84
2022-08-07T08:32:38.691Z,1010.80
2022-08-07T08:33:28.737Z,1010.79
2022-08-07T08:34:29.203Z,1010.85
2022-08-07T08:35:42.919Z,1010.89
2022-08-07T08:36:29.798Z,1010.86
2022-08-07T08:38:01.657Z,1010.83
2022-08-07T08:38:29.255Z,1010.83
2022-08-07T08:39:39.514Z,1010.84
2022-08-07T08:40:28.363Z,1010.85
2022-08-07T08:41:56.911Z,1010.88
2022-08-07T08:42:27.675Z,1010.84
2022-08-07T08:43:32.101Z,1010.83
2022-08-07T08:44:29.349Z,1010.85
2022-08-07T08:45:41.872Z,1010.80
2022-08-07T08:46:32.651Z,1010.82
2022-08-07T08:47:26.621Z,1010.86
2022-08-07T08:48:28.549Z,1010.82
2022-08-07T08:49:32.740Z,1010.84
2022-08-07T08:50:34.760Z,1010.84
2022-08-07T08:51:49.797Z,1010.82
2022-08-07T08:52:30.327Z,1010.85
2022-08-07T08:53:29.499Z,1010.85
2022-08-07T08:54:26.542Z,1010.80
2022-08-07T08:55:54.868Z,1010.75
2022-08-07T08:56:27.519Z,1010.77
2022-08-07T08:57:34.192Z,1010.74
2022-08-07T08:58:28.981Z,1010.74
2022-08-07T08:59:26.487Z,1010.73
2022-08-07T09:00:28.669Z,1010.70
2022-08-07T09:01:29.983Z,1010.68
2022-08-07T09:02:36.446Z,1010.71
2022-08-07T09:03:49.398Z,1010.73
2022-08-07T09:04:28.864Z,1010.69
2022-08-07T09:05:37.394Z,1010.66
2022-08-07T09:06:27.411Z,1010.72
2022-08-07T09:07:26.399Z,1010.72
2022-08-07T09:08:31.415Z,1010.67
2022-08-07T09:09:33.265Z,1010.70
2022-08-07T09:10:27.379Z,1010.66
2022-08-07T09:11:50.603Z,1010.61
2022-08-07T09:12:30.925Z,1010.67
2022-08-07T09:13:36.751Z,1010.66
2022-08-07T09:14:29.574Z,1010.67
2022-08-07T09:16:23.468Z,1010.55
2022-08-07T09:16:30.144Z,1010.52
2022-08-07T09:17:26.550Z,1010.52
2022-08-07T09:18:27.926Z,1010.57
2022-08-07T09:19:51.716Z,1010.49
2022-08-07T09:20:35.913Z,1010.52
2022-08-07T09:21:34.098Z,1010.52
2022-08-07T09:24:28.224Z,1010.49
2022-08-07T09:24:32.668Z,1010.52
2022-08-07T09:24:32.765Z,1010.50
2022-08-07T09:25:27.193Z,1010.51
2022-08-07T09:26:26.180Z,1010.56
2022-08-07T09:27:27.390Z,1010.53
2022-08-07T09:30:04.534Z,1010.51
2022-08-07T09:30:05.007Z,1010.50
2022-08-07T09:30:32.163Z,1010.57
2022-08-07T09:31:26.128Z,1010.47
2022-08-07T09:32:27.114Z,1010.50
2022-08-07T09:33:52.552Z,1010.54
2022-08-07T09:34:27.197Z,1010.62
2022-08-07T09:36:01.338Z,1010.62
2022-08-07T09:36:28.579Z,1010.54
2022-08-07T09:37:33.533Z,1010.47
2022-08-07T09:38:27.072Z,1010.37
2022-08-07T09:39:53.705Z,1010.39
2022-08-07T09:40:27.197Z,1010.39
2022-08-07T09:41:36.419Z,1010.42
2022-08-07T09:42:32.931Z,1010.45
2022-08-07T09:43:40.043Z,1010.31
2022-08-07T09:44:36.181Z,1010.40
2022-08-07T09:47:23.619Z,1010.37
2022-08-07T09:47:49.986Z,1010.39
2022-08-07T09:47:58.160Z,1010.36
2022-08-07T09:48:30.001Z,1010.37
2022-08-07T09:50:00.530Z,1010.45
2022-08-07T09:50:26.939Z,1010.40
2022-08-07T09:52:16.758Z,1010.31
2022-08-07T09:52:34.866Z,1010.38
2022-08-07T09:53:25.882Z,1010.29
2022-08-07T09:54:27.267Z,1010.29
2022-08-07T09:55:29.475Z,1010.19
2022-08-07T09:56:37.634Z,1010.26
2022-08-07T09:57:27.983Z,1010.17
2022-08-07T09:58:32.175Z,1010.13
2022-08-07T09:59:35.835Z,1010.14
2022-08-07T10:00:29.813Z,1010.23
2022-08-07T10:01:51.391Z,1010.12
2022-08-07T10:02:29.579Z,1010.11
2022-08-07T10:04:03.097Z,1010.15
2022-08-07T10:04:28.400Z,1010.07
2022-08-07T10:05:59.034Z,1010.11
2022-08-07T10:06:27.370Z,1010.05
2022-08-07T10:07:31.476Z,1010.03
2022-08-07T10:08:26.715Z,1010.03
2022-08-07T10:09:43.011Z,1010.05
2022-08-07T10:10:28.181Z,1010.05
2022-08-07T10:12:01.459Z,1009.97
2022-08-07T10:12:26.666Z,1010.03
2022-08-07T10:13:54.908Z,1009.91
2022-08-07T10:14:31.678Z,1009.94
2022-08-07T10:15:25.644Z,1009.97
2022-08-07T10:16:25.623Z,1009.95
2022-08-07T10:17:25.611Z,1009.92
2022-08-07T10:18:26.316Z,1009.93
2022-08-07T10:19:25.588Z,1009.91
2022-08-07T10:20:30.561Z,1009.79
2022-08-07T10:21:50.668Z,1009.83
2022-08-07T10:22:33.870Z,1009.80
2022-08-07T10:24:05.880Z,1009.81
2022-08-07T10:24:26.533Z,1009.78
2022-08-07T10:25:42.062Z,1009.80
2022-08-07T10:26:26.510Z,1009.79
2022-08-07T10:27:25.511Z,1009.77
2022-08-07T10:28:25.504Z,1009.80
2022-08-07T10:29:25.479Z,1009.75
2022-08-07T10:30:26.598Z,1009.80
2022-08-07T10:31:25.454Z,1009.66
2022-08-07T10:32:51.043Z,1009.75
2022-08-07T10:34:05.866Z,1009.65
2022-08-07T10:34:27.260Z,1009.76
2022-08-07T10:35:26.422Z,1009.84
2022-08-07T10:36:36.275Z,1009.70
2022-08-07T10:38:00.684Z,1009.70
2022-08-07T10:38:35.955Z,1009.66
2022-08-07T10:39:41.305Z,1009.59
2022-08-07T10:40:30.390Z,1009.60
2022-08-07T10:41:52.192Z,1009.55
2022-08-07T10:42:31.114Z,1009.60
2022-08-07T10:43:34.236Z,1009.59
2022-08-07T10:44:28.790Z,1009.49
2022-08-07T10:45:29.362Z,1009.54
2022-08-07T10:46:26.287Z,1009.51
2022-08-07T10:47:51.408Z,1009.45
2022-08-07T10:48:34.554Z,1009.57
2022-08-07T10:49:49.815Z,1009.47
2022-08-07T10:50:26.610Z,1009.49
2022-08-07T10:51:39.712Z,1009.54
2022-08-07T10:52:33.553Z,1009.56
2022-08-07T10:53:26.211Z,1009.40
2022-08-07T10:54:25.199Z,1009.31
2022-08-07T10:55:36.885Z,1009.30
2022-08-07T10:56:31.626Z,1009.38
2022-08-07T10:57:34.473Z,1009.35
2022-08-07T10:58:33.130Z,1009.39
2022-08-07T10:59:30.470Z,1009.45
2022-08-07T11:00:36.523Z,1009.40
2022-08-07T11:01:35.335Z,1009.33
2022-08-07T11:02:33.645Z,1009.36
2022-08-07T11:03:28.077Z,1009.40
2022-08-07T11:04:32.148Z,1009.42
2022-08-07T11:05:35.667Z,1009.23
2022-08-07T11:06:26.760Z,1009.32
2022-08-07T11:08:00.450Z,1009.38
2022-08-07T11:08:29.127Z,1009.58
2022-08-07T11:10:08.893Z,1009.59
2022-08-07T11:10:27.546Z,1009.62
2022-08-07T11:11:25.012Z,1009.44
2022-08-07T11:12:31.624Z,1009.43
2022-08-07T11:14:44.285Z,1009.30
2022-08-07T11:14:44.865Z,1009.32
2022-08-07T11:15:26.271Z,1009.30
2022-08-07T11:16:30.464Z,1009.30
2022-08-07T11:17:43.304Z,1009.27
2022-08-07T11:18:25.933Z,1009.33
2022-08-07T11:19:27.221Z,1009.23
2022-08-07T11:20:29.985Z,1009.28
2022-08-07T11:21:24.906Z,1009.28
2022-08-07T11:22:33.323Z,1009.36
2022-08-07T11:23:30.430Z,1009.58
2022-08-07T11:24:25.869Z,1009.32
2022-08-07T11:25:24.869Z,1009.28
2022-08-07T11:26:24.846Z,1009.58
2022-08-07T11:28:00.773Z,1009.50
2022-08-07T11:28:25.826Z,1009.57
2022-08-07T11:29:43.539Z,1009.13
2022-08-07T11:30:39.131Z,1009.50
2022-08-07T11:31:33.304Z,1009.65
2022-08-07T11:32:25.649Z,1009.62
2022-08-07T11:33:54.289Z,1009.45
2022-08-07T11:34:25.758Z,1009.46
2022-08-07T11:35:26.800Z,1009.29
2022-08-07T11:36:25.438Z,1009.16
2022-08-07T11:37:25.728Z,1009.09
2022-08-07T11:38:28.129Z,1009.16
2022-08-07T11:39:24.778Z,1009.09
2022-08-07T11:40:24.745Z,1009.05
2022-08-07T11:42:00.287Z,1009.06
2022-08-07T11:42:30.692Z,1009.00
2022-08-07T11:43:41.535Z,1009.05
2022-08-07T11:44:25.672Z,1008.98
2022-08-07T11:45:34.692Z,1009.05
2022-08-07T11:46:25.627Z,1009.02
2022-08-07T11:47:26.117Z,1008.97
2022-08-07T11:48:29.677Z,1008.93
2022-08-07T11:49:27.579Z,1008.92
2022-08-07T11:50:32.355Z,1008.88
2022-08-07T11:51:41.415Z,1009.04
2022-08-07T11:52:29.396Z,1009.02
2022-08-07T11:53:25.549Z,1008.97
2022-08-07T11:54:25.415Z,1009.00
2022-08-07T11:56:08.977Z,1009.13
2022-08-07T11:56:28.129Z,1009.04
2022-08-07T11:57:57.677Z,1008.96
2022-08-07T11:58:33.429Z,1009.14
2022-08-07T12:00:10.576Z,1009.21
2022-08-07T12:00:28.332Z,1009.25
2022-08-07T12:01:24.625Z,1009.20
2022-08-07T12:02:30.211Z,1009.23
2022-08-07T12:03:44.666Z,1009.19
2022-08-07T12:04:25.435Z,1009.20
2022-08-07T12:05:28.536Z,1009.14
2022-08-07T12:06:36.923Z,1009.26
2022-08-07T12:07:27.193Z,1009.10
2022-08-07T12:08:26.110Z,1009.26
2022-08-07T12:09:25.376Z,1009.20
2022-08-07T12:10:24.381Z,1009.20
2022-08-07T12:11:24.359Z,1009.17
2022-08-07T12:12:25.349Z,1009.11
2022-08-07T12:13:35.688Z,1009.06
2022-08-07T12:14:25.327Z,1009.05
2022-08-07T12:15:57.963Z,1009.07
2022-08-07T12:16:28.932Z,1009.11
2022-08-07T12:17:25.295Z,1009.19
2022-08-07T12:18:29.909Z,1009.14
2022-08-07T12:19:35.613Z,1009.22
2022-08-07T12:20:30.658Z,1009.13
2022-08-07T12:22:35.917Z,1009.17
2022-08-07T12:22:39.260Z,1009.17
2022-08-07T12:24:04.845Z,1009.15
2022-08-07T12:24:38.081Z,1009.13
2022-08-07T12:26:02.977Z,1009.08
2022-08-07T12:26:29.771Z,1009.07
2022-08-07T12:27:27.964Z,1009.04
2022-08-07T12:28:31.332Z,1009.09
2022-08-07T12:29:37.862Z,1009.09
2022-08-07T12:30:30.192Z,1009.06
2022-08-07T12:31:24.147Z,1009.07
2022-08-07T12:32:24.148Z,1009.06
2022-08-07T12:33:30.860Z,1009.11
2022-08-07T12:34:25.892Z,1009.03
2022-08-07T12:35:24.194Z,1009.01
2022-08-07T12:36:32.626Z,1009.08
2022-08-07T12:37:28.459Z,1009.09
2022-08-07T12:38:36.966Z,1008.99
2022-08-07T12:39:42.682Z,1008.87
2022-08-07T12:40:46.356Z,1008.74
2022-08-07T12:41:49.224Z,1008.63
2022-08-07T12:42:27.621Z,1008.70
2022-08-07T12:44:02.762Z,1008.73
2022-08-07T12:44:25.018Z,1008.62
2022-08-07T12:45:24.014Z,1008.72
2022-08-07T12:46:26.256Z,1008.69
2022-08-07T12:47:26.962Z,1008.67
2022-08-07T12:48:27.758Z,1008.65
2022-08-07T12:49:39.523Z,1008.67
2022-08-07T12:50:38.552Z,1008.65
2022-08-07T12:51:33.404Z,1008.61
2022-08-07T12:52:30.221Z,1008.62
2022-08-07T12:53:23.918Z,1008.57
2022-08-07T12:54:38.953Z,1008.57
2022-08-07T12:55:40.736Z,1008.61
2022-08-07T12:56:24.947Z,1008.58
2022-08-07T12:57:23.878Z,1008.54
2022-08-07T12:58:28.054Z,1008.57
2022-08-07T12:59:24.883Z,1008.60
2022-08-07T13:00:32.956Z,1008.57
2022-08-07T13:01:32.025Z,1008.57
2022-08-07T13:02:25.939Z,1008.61
2022-08-07T13:04:00.559Z,1008.54
2022-08-07T13:04:34.650Z,1008.55
2022-08-07T13:06:05.021Z,1008.50
2022-08-07T13:06:27.551Z,1008.44
2022-08-07T13:08:13.899Z,1008.46
2022-08-07T13:08:25.833Z,1008.52
2022-08-07T13:10:22.067Z,1008.44
2022-08-07T13:10:39.376Z,1008.37
2022-08-07T13:11:24.787Z,1008.44
2022-08-07T13:12:23.783Z,1008.40
2022-08-07T13:13:48.698Z,1008.30
2022-08-07T13:14:24.697Z,1008.35
2022-08-07T13:15:29.517Z,1008.34
2022-08-07T13:16:29.731Z,1008.32
2022-08-07T13:17:23.783Z,1008.32
2022-08-07T13:18:26.262Z,1008.46
2022-08-07T13:19:46.279Z,1008.36
2022-08-07T13:20:27.876Z,1008.36
2022-08-07T13:21:50.153Z,1008.37
2022-08-07T13:22:28.133Z,1008.36
2022-08-07T13:24:01.021Z,1008.30
2022-08-07T13:24:25.871Z,1008.36
2022-08-07T13:25:28.886Z,1008.34
2022-08-07T13:26:26.430Z,1008.34
2022-08-07T13:27:23.557Z,1008.30
2022-08-07T13:28:25.209Z,1008.30
2022-08-07T13:29:28.548Z,1008.30
2022-08-07T13:30:41.012Z,1008.29
2022-08-07T13:31:24.507Z,1008.24
2022-08-07T13:32:32.219Z,1008.14
2022-08-07T13:34:32.034Z,1008.15
2022-08-07T13:34:32.872Z,1008.16
2022-08-07T13:35:24.462Z,1008.20
2022-08-07T13:36:25.905Z,1008.17
2022-08-07T13:37:23.928Z,1008.18
2022-08-07T13:38:23.661Z,1008.16
2022-08-07T13:39:49.191Z,1008.20
2022-08-07T13:40:35.529Z,1008.15
2022-08-07T13:41:24.414Z,1008.15
2022-08-07T13:42:25.012Z,1008.24
2022-08-07T13:43:23.376Z,1008.16
2022-08-07T13:44:26.140Z,1008.17
2022-08-07T13:46:12.414Z,1008.04
2022-08-07T13:46:28.798Z,1008.04
2022-08-07T13:48:05.454Z,1008.08
2022-08-07T13:48:34.130Z,1008.07
2022-08-07T13:50:32.842Z,1008.12
2022-08-07T13:50:32.911Z,1008.01
2022-08-07T13:52:22.467Z,1008.04
2022-08-07T13:52:36.185Z,1008.03
2022-08-07T13:53:24.269Z,1008.03
2022-08-07T13:54:23.966Z,1008.01
2022-08-07T13:55:26.487Z,1007.96
2022-08-07T13:56:36.000Z,1008.01
2022-08-07T13:57:24.406Z,1008.00
2022-08-07T13:58:27.642Z,1008.01
2022-08-07T13:59:24.197Z,1007.97
2022-08-07T14:00:26.115Z,1008.03
2022-08-07T14:01:23.176Z,1008.04
2022-08-07T14:02:29.696Z,1007.97
2022-08-07T14:03:30.078Z,1007.99
2022-08-07T14:04:24.191Z,1008.00
2022-08-07T14:05:24.215Z,1008.01
2022-08-07T14:06:24.735Z,1007.97
2022-08-07T14:07:23.652Z,1007.98
2022-08-07T14:08:23.145Z,1007.95
2022-08-07T14:10:02.488Z,1007.94
2022-08-07T14:10:28.151Z,1007.96
2022-08-07T14:11:24.064Z,1007.87
2022-08-07T14:12:27.624Z,1007.91
2022-08-07T14:13:33.394Z,1007.88
2022-08-07T14:14:23.061Z,1007.88
2022-08-07T14:15:23.913Z,1007.83
2022-08-07T14:16:27.194Z,1007.90
2022-08-07T14:17:51.476Z,1007.79
2022-08-07T14:18:28.527Z,1007.75
2022-08-07T14:20:39.811Z,1007.83
2022-08-07T14:20:41.938Z,1007.84
2022-08-07T14:22:02.345Z,1007.84
2022-08-07T14:22:34.424Z,1007.86
2022-08-07T14:23:54.656Z,1007.91
2022-08-07T14:24:28.939Z,1007.82
2022-08-07T14:25:22.934Z,1007.75
2022-08-07T14:26:30.461Z,1007.72
2022-08-07T14:30:04.955Z,1007.76
2022-08-07T14:30:33.179Z,1007.72
2022-08-07T14:31:23.866Z,1007.72
2022-08-07T14:32:24.943Z,1007.71
2022-08-07T14:33:23.600Z,1007.74
2022-08-07T14:34:27.200Z,1007.74
2022-08-07T14:35:44.778Z,1007.74
2022-08-07T14:36:23.838Z,1007.67
2022-08-07T14:37:32.916Z,1007.67
2022-08-07T14:38:26.721Z,1007.63
2022-08-07T14:40:26.653Z,1007.69
2022-08-07T14:41:34.114Z,1007.60
2022-08-07T14:42:23.718Z,1007.67
2022-08-07T14:43:58.779Z,1007.65
2022-08-07T14:44:24.302Z,1007.69
2022-08-07T14:45:22.734Z,1007.67
2022-08-07T14:46:31.187Z,1007.67
2022-08-07T14:47:22.669Z,1007.60
2022-08-07T14:48:27.347Z,1007.67
2022-08-07T14:49:57.150Z,1007.62
2022-08-07T14:50:23.630Z,1007.64
2022-08-07T14:51:22.623Z,1007.69
2022-08-07T14:54:05.817Z,1007.65
2022-08-07T14:54:30.876Z,1007.59
2022-08-07T14:55:23.578Z,1007.62
2022-08-07T14:56:29.846Z,1007.62
2022-08-07T14:57:54.412Z,1007.54
2022-08-07T14:58:24.828Z,1007.51
2022-08-07T15:00:30.665Z,1007.56
2022-08-07T15:01:23.515Z,1007.60
2022-08-07T15:02:33.111Z,1007.45
2022-08-07T15:03:23.535Z,1007.58
2022-08-07T15:04:25.116Z,1007.53
2022-08-07T15:05:23.667Z,1007.56
2022-08-07T15:06:22.480Z,1007.53
2022-08-07T15:07:22.446Z,1007.60
2022-08-07T15:09:57.691Z,1007.54
2022-08-07T15:13:25.290Z,1007.44
2022-08-07T15:14:22.432Z,1007.46
2022-08-07T15:15:22.788Z,1007.46
2022-08-07T15:16:33.541Z,1007.44
2022-08-07T15:17:23.335Z,1007.41
2022-08-07T15:18:28.418Z,1007.41
2022-08-07T15:21:44.394Z,1007.36
2022-08-07T15:22:31.451Z,1007.35
2022-08-07T15:23:53.548Z,1007.37
2022-08-07T15:25:15.511Z,1007.40
2022-08-07T15:25:23.246Z,1007.36
2022-08-07T15:26:22.409Z,1007.39
2022-08-07T15:27:22.297Z,1007.32
2022-08-07T15:28:34.520Z,1007.39
2022-08-07T15:30:04.693Z,1007.40
2022-08-07T15:30:28.214Z,1007.39
2022-08-07T15:32:01.161Z,1007.34
2022-08-07T15:32:39.731Z,1007.31
2022-08-07T15:33:23.156Z,1007.32
2022-08-07T15:34:26.088Z,1007.29
2022-08-07T15:37:02.456Z,1007.29
2022-08-07T15:38:31.110Z,1007.32
2022-08-07T15:39:23.142Z,1007.36
2022-08-07T15:42:43.289Z,1007.31
2022-08-07T15:43:33.187Z,1007.31
2022-08-07T15:44:23.464Z,1007.27
2022-08-07T15:45:22.026Z,1007.20
2022-08-07T15:46:31.505Z,1007.22
2022-08-07T15:48:00.120Z,1007.21
2022-08-07T15:48:22.989Z,1007.26
2022-08-07T15:49:25.475Z,1007.26
2022-08-07T15:50:37.986Z,1007.27
2022-08-07T15:51:22.959Z,1007.21
2022-08-07T15:52:30.022Z,1007.25
2022-08-07T15:53:21.937Z,1007.26
2022-08-07T15:54:21.960Z,1007.28
2022-08-07T15:55:23.243Z,1007.26
2022-08-07T15:56:24.086Z,1007.19
2022-08-07T15:57:40.250Z,1007.14
2022-08-07T15:58:22.879Z,1007.11
2022-08-07T15:59:40.104Z,1007.16
2022-08-07T16:00:33.454Z,1007.15
2022-08-07T16:01:22.896Z,1007.12
2022-08-07T16:02:27.346Z,1007.10
2022-08-07T16:03:46.074Z,1007.11
2022-08-07T16:04:22.813Z,1007.07
2022-08-07T16:05:23.153Z,1007.09
2022-08-07T16:06:22.796Z,1007.06
2022-08-07T16:08:31.521Z,1007.10
2022-08-07T16:08:32.989Z,1007.09
2022-08-07T16:09:23.110Z,1007.09
2022-08-07T16:10:21.780Z,1007.05
2022-08-07T16:11:27.373Z,1007.07
2022-08-07T16:12:28.631Z,1007.04
2022-08-07T16:13:58.064Z,1007.12
2022-08-07T16:14:27.729Z,1007.08
2022-08-07T16:15:56.375Z,1007.10
2022-08-07T16:16:48.320Z,1007.03
2022-08-07T16:18:02.888Z,1007.03
2022-08-07T16:18:49.379Z,1007.02
2022-08-07T16:19:43.194Z,1007.04
2022-08-07T16:20:33.362Z,1007.01